createdAt,value
2023-01-03T00:02:18.572Z,102747.69
2023-01-03T00:04:49.390Z,102745.22
2023-01-03T00:07:33.546Z,102751.00
2023-01-03T00:10:05.744Z,102752.50
2023-01-03T00:12:32.333Z,102754.31
2023-01-03T00:14:59.632Z,102749.69
2023-01-03T00:17:26.044Z,102757.78
2023-01-03T00:19:52.486Z,102755.13
2023-01-03T00:22:19.009Z,102761.59
2023-01-03T00:24:46.708Z,102760.28
2023-01-03T00:27:13.586Z,102763.41
2023-01-03T00:29:40.243Z,102757.78
2023-01-03T00:32:06.720Z,102762.75
2023-01-03T00:34:34.345Z,102766.38
2023-01-03T00:37:01.166Z,102772.81
2023-01-03T00:39:27.762Z,102771.50
2023-01-03T00:41:54.539Z,102763.03
2023-01-03T00:44:21.355Z,102773.28
2023-01-03T00:46:47.774Z,102771.97
2023-01-03T00:49:14.154Z,102770.63
2023-01-03T00:51:41.300Z,102787.84
2023-01-03T00:54:09.285Z,102780.38
2023-01-03T00:56:38.518Z,102785.34
2023-01-03T00:59:06.222Z,102782.34
2023-01-03T01:01:45.908Z,102788.31
2023-01-03T01:04:20.887Z,102791.25
2023-01-03T01:06:50.161Z,102791.94
2023-01-03T01:09:23.146Z,102806.50
2023-01-03T01:11:50.289Z,102806.31
2023-01-03T01:14:22.390Z,102793.06
2023-01-03T01:16:51.923Z,102793.06
2023-01-03T01:19:21.347Z,102787.44
2023-01-03T01:21:47.895Z,102795.19
2023-01-03T01:24:17.961Z,102797.56
2023-01-03T01:26:45.270Z,102797.56
2023-01-03T01:29:13.061Z,102800.56
2023-01-03T01:31:40.229Z,102799.06
2023-01-03T01:34:07.164Z,102803.88
2023-01-03T01:36:37.533Z,102807.72
2023-01-03T01:39:06.746Z,102805.38
2023-01-03T01:41:53.801Z,102806.03
2023-01-03T01:44:41.700Z,102817.16
2023-01-03T01:47:28.833Z,102817.66
2023-01-03T01:50:07.170Z,102813.72
2023-01-03T01:52:36.445Z,102814.84
2023-01-03T01:55:06.004Z,102817.69
2023-01-03T01:57:34.075Z,102815.34
2023-01-03T02:00:00.598Z,102811.38
2023-01-03T02:02:27.351Z,102812.22
2023-01-03T02:04:56.689Z,102813.22
2023-01-03T02:07:23.862Z,102814.88
2023-01-03T02:09:54.928Z,102812.56
2023-01-03T02:12:43.172Z,102813.06
2023-01-03T02:15:21.870Z,102812.56
2023-01-03T02:18:03.451Z,102818.00
2023-01-03T02:20:46.820Z,102823.97
2023-01-03T02:23:45.698Z,102820.50
2023-01-03T02:26:30.399Z,102822.13
2023-01-03T02:29:22.547Z,102826.59
2023-01-03T02:31:54.852Z,102829.06
2023-01-03T02:34:55.769Z,102823.59
2023-01-03T02:37:40.471Z,102835.84
2023-01-03T02:40:29.425Z,102839.03
2023-01-03T02:43:16.268Z,102834.22
2023-01-03T02:46:00.554Z,102840.50
2023-01-03T02:49:04.908Z,102832.91
2023-01-03T02:51:41.630Z,102828.28
2023-01-03T02:54:11.752Z,102828.09
2023-01-03T02:56:44.097Z,102833.06
2023-01-03T02:59:15.313Z,102833.56
2023-01-03T03:01:50.951Z,102825.31
2023-01-03T03:04:19.654Z,102823.31
2023-01-03T03:06:54.821Z,102818.69
2023-01-03T03:09:21.229Z,102818.19
2023-01-03T03:12:07.235Z,102812.38
2023-01-03T03:14:39.178Z,102812.88
2023-01-03T03:17:19.485Z,102810.38
2023-01-03T03:20:06.799Z,102813.38
2023-01-03T03:23:03.026Z,102817.81
2023-01-03T03:25:37.341Z,102815.47
2023-01-03T03:28:27.932Z,102817.47
2023-01-03T03:31:02.061Z,102808.81
2023-01-03T03:33:33.315Z,102821.22
2023-01-03T03:36:11.124Z,102807.31
2023-01-03T03:38:42.198Z,102807.25
2023-01-03T03:41:57.985Z,102806.59
2023-01-03T03:45:06.166Z,102808.06
2023-01-03T03:47:51.317Z,102804.88
2023-01-03T03:50:17.644Z,102801.72
2023-01-03T03:52:47.461Z,102805.69
2023-01-03T03:55:21.595Z,102816.59
2023-01-03T03:58:00.844Z,102800.66
2023-01-03T04:00:31.582Z,102809.06
2023-01-03T04:03:01.823Z,102809.72
2023-01-03T04:05:34.594Z,102811.03
2023-01-03T04:08:01.045Z,102822.28
2023-01-03T04:10:30.190Z,102825.59
2023-01-03T04:13:01.438Z,102823.78
2023-01-03T04:15:27.852Z,102823.59
2023-01-03T04:17:54.451Z,102828.91
2023-01-03T04:20:21.136Z,102826.25
2023-01-03T04:22:47.496Z,102839.38
2023-01-03T04:25:14.020Z,102826.25
2023-01-03T04:27:40.408Z,102833.56
2023-01-03T04:30:07.276Z,102829.91
2023-01-03T04:32:33.731Z,102828.25
2023-01-03T04:35:00.129Z,102837.38
2023-01-03T04:37:26.593Z,102845.88
2023-01-03T04:39:53.016Z,102840.38
2023-01-03T04:42:38.095Z,102840.38
2023-01-03T04:45:05.343Z,102842.22
2023-01-03T04:47:31.873Z,102844.88
2023-01-03T04:49:58.253Z,102839.09
2023-01-03T04:52:24.706Z,102843.56
2023-01-03T04:54:51.119Z,102845.41
2023-01-03T04:57:17.485Z,102843.22
2023-01-03T04:59:43.954Z,102844.03
2023-01-03T05:02:10.590Z,102849.53
2023-01-03T05:04:37.232Z,102845.22
2023-01-03T05:07:03.686Z,102844.56
2023-01-03T05:09:30.271Z,102842.44
2023-01-03T05:11:56.667Z,102852.56
2023-01-03T05:14:23.326Z,102849.44
2023-01-03T05:16:49.932Z,102850.44
2023-01-03T05:19:16.403Z,102855.25
2023-01-03T05:22:01.474Z,102841.00
2023-01-03T05:24:46.172Z,102843.19
2023-01-03T05:27:12.801Z,102840.34
2023-01-03T05:29:39.401Z,102839.88
2023-01-03T05:32:05.975Z,102839.69
2023-01-03T05:34:32.413Z,102835.38
2023-01-03T05:36:58.834Z,102830.75
2023-01-03T05:39:25.170Z,102831.09
2023-01-03T05:42:00.623Z,102825.31
2023-01-03T05:44:30.195Z,102815.53
2023-01-03T05:47:01.478Z,102820.84
2023-01-03T05:49:27.934Z,102821.19
2023-01-03T05:51:54.377Z,102814.56
2023-01-03T05:54:21.356Z,102819.19
2023-01-03T05:56:47.790Z,102815.25
2023-01-03T05:59:14.549Z,102823.53
2023-01-03T06:01:41.128Z,102819.56
2023-01-03T06:04:07.623Z,102820.91
2023-01-03T06:06:34.279Z,102817.63
2023-01-03T06:09:00.746Z,102814.63
2023-01-03T06:11:27.194Z,102815.81
2023-01-03T06:13:53.651Z,102822.44
2023-01-03T06:16:39.218Z,102818.31
2023-01-03T06:19:07.132Z,102833.34
2023-01-03T06:21:34.534Z,102830.88
2023-01-03T06:24:01.503Z,102834.53
2023-01-03T06:26:28.264Z,102823.28
2023-01-03T06:28:54.807Z,102824.44
2023-01-03T06:31:21.501Z,102821.13
2023-01-03T06:33:48.555Z,102828.25
2023-01-03T06:36:17.817Z,102822.59
2023-01-03T06:38:44.687Z,102814.84
2023-01-03T06:41:12.806Z,102818.47
2023-01-03T06:43:39.372Z,102810.84
2023-01-03T06:46:24.952Z,102812.50
2023-01-03T06:49:10.480Z,102805.91
2023-01-03T06:52:02.738Z,102813.03
2023-01-03T06:54:31.516Z,102819.31
2023-01-03T06:56:58.575Z,102826.75
2023-01-03T06:59:25.349Z,102814.16
2023-01-03T07:01:53.256Z,102809.22
2023-01-03T07:04:21.139Z,102801.09
2023-01-03T07:06:47.739Z,102817.13
2023-01-03T07:09:14.871Z,102814.16
2023-01-03T07:11:42.267Z,102818.28
2023-01-03T07:14:10.352Z,102804.69
2023-01-03T07:16:42.073Z,102815.97
2023-01-03T07:19:12.932Z,102820.41
2023-01-03T07:21:39.749Z,102819.59
2023-01-03T07:24:07.899Z,102809.00
2023-01-03T07:26:35.791Z,102810.47
2023-01-03T07:29:05.611Z,102812.97
2023-01-03T07:31:34.790Z,102813.97
2023-01-03T07:34:01.725Z,102819.75
2023-01-03T07:36:28.390Z,102817.91
2023-01-03T07:38:55.988Z,102818.56
2023-01-03T07:41:22.544Z,102839.44
2023-01-03T07:43:49.994Z,102835.47
2023-01-03T07:46:23.521Z,102828.81
2023-01-03T07:48:52.743Z,102816.88
2023-01-03T07:51:21.334Z,102825.47
2023-01-03T07:53:52.520Z,102823.66
2023-01-03T07:56:20.346Z,102830.44
2023-01-03T07:58:48.085Z,102830.09
2023-01-03T08:01:24.125Z,102829.75
2023-01-03T08:03:50.950Z,102824.09
2023-01-03T08:06:23.120Z,102824.41
2023-01-03T08:09:10.071Z,102825.91
2023-01-03T08:11:55.456Z,102822.91
2023-01-03T08:14:26.113Z,102818.91
2023-01-03T08:16:53.546Z,102822.69
2023-01-03T08:19:20.047Z,102821.34
2023-01-03T08:21:46.476Z,102828.13
2023-01-03T08:24:13.050Z,102807.56
2023-01-03T08:26:39.477Z,102815.47
2023-01-03T08:29:06.758Z,102821.06
2023-01-03T08:31:39.030Z,102827.84
2023-01-03T08:34:13.807Z,102833.47
2023-01-03T08:36:49.663Z,102830.47
2023-01-03T08:39:20.411Z,102825.81
2023-01-03T08:41:59.194Z,102831.59
2023-01-03T08:44:26.107Z,102833.72
2023-01-03T08:46:55.804Z,102846.66
2023-01-03T08:49:22.464Z,102849.94
2023-01-03T08:51:49.118Z,102847.56
2023-01-03T08:54:15.551Z,102849.69
2023-01-03T08:56:42.141Z,102850.00
2023-01-03T08:59:08.613Z,102850.47
2023-01-03T09:01:35.314Z,102852.59
2023-01-03T09:04:02.261Z,102848.59
2023-01-03T09:06:28.765Z,102839.06
2023-01-03T09:08:55.167Z,102841.38
2023-01-03T09:11:21.658Z,102838.38
2023-01-03T09:13:48.120Z,102837.38
2023-01-03T09:16:16.477Z,102837.00
2023-01-03T09:18:43.163Z,102836.84
2023-01-03T09:21:09.747Z,102833.19
2023-01-03T09:23:38.022Z,102835.44
2023-01-03T09:26:05.405Z,102829.97
2023-01-03T09:28:32.089Z,102829.78
2023-01-03T09:30:58.792Z,102831.44
2023-01-03T09:33:25.751Z,102834.56
2023-01-03T09:35:54.213Z,102835.19
2023-01-03T09:38:21.951Z,102825.88
2023-01-03T09:40:58.052Z,102840.47
2023-01-03T09:43:27.337Z,102839.06
2023-01-03T09:45:56.585Z,102839.53
2023-01-03T09:48:29.997Z,102828.38
2023-01-03T09:51:18.439Z,102838.47
2023-01-03T09:54:01.684Z,102835.06
2023-01-03T09:56:46.631Z,102839.66
2023-01-03T09:59:35.226Z,102837.44
2023-01-03T10:02:53.038Z,102835.44
2023-01-03T10:05:37.968Z,102842.06
2023-01-03T10:08:38.590Z,102841.66
2023-01-03T10:11:09.324Z,102835.16
2023-01-03T10:13:50.877Z,102834.78
2023-01-03T10:16:26.402Z,102835.41
2023-01-03T10:19:14.712Z,102843.69
2023-01-03T10:21:53.200Z,102833.31
2023-01-03T10:24:29.219Z,102836.44
2023-01-03T10:27:12.358Z,102829.91
2023-01-03T10:29:39.026Z,102829.56
2023-01-03T10:32:22.791Z,102827.34
2023-01-03T10:35:08.241Z,102835.75
2023-01-03T10:37:34.661Z,102827.41
2023-01-03T10:40:05.317Z,102818.22
2023-01-03T10:42:34.910Z,102824.84
2023-01-03T10:45:05.767Z,102826.94
2023-01-03T10:47:32.200Z,102828.38
2023-01-03T10:50:03.608Z,102834.19
2023-01-03T10:52:39.421Z,102830.31
2023-01-03T10:57:46.055Z,102828.72
2023-01-03T11:00:23.849Z,102826.72
2023-01-03T11:02:51.136Z,102831.47
2023-01-03T11:05:23.878Z,102818.78
2023-01-03T11:07:56.334Z,102821.09
2023-01-03T11:10:24.747Z,102819.06
2023-01-03T11:12:51.287Z,102823.19
2023-01-03T11:15:38.341Z,102820.19
2023-01-03T11:18:16.183Z,102815.66
2023-01-03T11:21:08.783Z,102802.16
2023-01-03T11:23:54.215Z,102806.94
2023-01-03T11:26:51.447Z,102802.69
2023-01-03T11:29:39.774Z,102801.09
2023-01-03T11:32:29.243Z,102799.66
2023-01-03T11:35:25.335Z,102792.13
2023-01-03T11:37:58.060Z,102790.53
2023-01-03T11:41:06.670Z,102802.06
2023-01-03T11:43:45.779Z,102794.50
2023-01-03T11:46:18.502Z,102783.66
2023-01-03T11:49:29.582Z,102784.31
2023-01-03T11:52:29.924Z,102779.41
2023-01-03T11:55:05.000Z,102765.69
2023-01-03T11:57:40.389Z,102771.06
2023-01-03T12:00:15.824Z,102762.06
2023-01-03T12:03:02.921Z,102760.63
2023-01-03T12:06:16.082Z,102764.94
2023-01-03T12:08:53.530Z,102752.47
2023-01-03T12:11:46.889Z,102754.91
2023-01-03T12:14:16.559Z,102748.56
2023-01-03T12:16:53.048Z,102742.66
2023-01-03T12:19:25.539Z,102743.28
2023-01-03T12:22:04.102Z,102740.41
2023-01-03T12:25:05.859Z,102740.81
2023-01-03T12:27:52.703Z,102751.09
2023-01-03T12:30:19.062Z,102746.59
2023-01-03T12:32:55.021Z,102741.06
2023-01-03T12:35:38.227Z,102751.53
2023-01-03T12:38:06.242Z,102740.69
2023-01-03T12:40:43.673Z,102740.47
2023-01-03T12:43:42.812Z,102737.41
2023-01-03T12:46:22.212Z,102730.47
2023-01-03T12:48:58.537Z,102725.56
2023-01-03T12:51:25.464Z,102716.94
2023-01-03T12:54:16.520Z,102714.91
2023-01-03T12:57:03.949Z,102710.03
2023-01-03T12:59:55.045Z,102718.44
2023-01-03T13:02:38.861Z,102724.59
2023-01-03T13:05:33.340Z,102727.06
2023-01-03T13:08:23.342Z,102737.91
2023-01-03T13:10:54.913Z,102729.09
2023-01-03T13:13:21.835Z,102719.47
2023-01-03T13:15:48.731Z,102726.63
2023-01-03T13:18:20.944Z,102729.09
2023-01-03T13:20:50.362Z,102726.22
2023-01-03T13:23:29.154Z,102719.06
2023-01-03T13:26:10.155Z,102706.53
2023-01-03T13:28:37.687Z,102703.66
2023-01-03T13:31:14.297Z,102712.28
2023-01-03T13:34:19.298Z,102700.81
2023-01-03T13:37:05.645Z,102702.47
2023-01-03T13:39:50.460Z,102696.09
2023-01-03T13:42:36.672Z,102711.91
2023-01-03T13:45:15.237Z,102710.47
2023-01-03T13:47:42.862Z,102716.63
2023-01-03T13:50:23.321Z,102704.94
2023-01-03T13:53:24.912Z,102697.34
2023-01-03T13:55:59.912Z,102700.84
2023-01-03T13:58:42.720Z,102687.09
2023-01-03T14:01:37.570Z,102687.31
2023-01-03T14:04:41.254Z,102686.28
2023-01-03T14:07:39.277Z,102685.03
2023-01-03T14:10:17.566Z,102673.78
2023-01-03T14:13:13.455Z,102668.00
2023-01-03T14:15:39.939Z,102683.38
2023-01-03T14:18:28.513Z,102676.63
2023-01-03T14:20:58.248Z,102680.53
2023-01-03T14:26:19.339Z,102675.97
2023-01-03T14:28:49.439Z,102681.75
2023-01-03T14:31:21.902Z,102684.41
2023-01-03T14:34:03.483Z,102682.75
2023-01-03T14:36:30.086Z,102678.44
2023-01-03T14:38:57.586Z,102676.16
2023-01-03T14:41:30.626Z,102671.22
2023-01-03T14:44:07.954Z,102668.78
2023-01-03T14:46:35.960Z,102669.59
2023-01-03T14:49:07.442Z,102666.28
2023-01-03T14:51:35.656Z,102670.81
2023-01-03T14:54:04.144Z,102662.81
2023-01-03T14:56:31.242Z,102659.34
2023-01-03T14:58:58.312Z,102659.75
2023-01-03T15:01:25.209Z,102661.16
2023-01-03T15:03:52.369Z,102652.75
2023-01-03T15:06:31.542Z,102649.03
2023-01-03T15:09:18.649Z,102653.53
2023-01-03T15:11:59.251Z,102657.63
2023-01-03T15:14:31.342Z,102657.41
2023-01-03T15:17:04.254Z,102652.28
2023-01-03T15:19:31.875Z,102651.84
2023-01-03T15:22:20.159Z,102651.41
2023-01-03T15:24:49.854Z,102660.00
2023-01-03T15:27:38.225Z,102654.88
2023-01-03T15:30:22.214Z,102655.91
2023-01-03T15:32:54.649Z,102657.94
2023-01-03T15:35:36.121Z,102654.66
2023-01-03T15:38:06.210Z,102647.69
2023-01-03T15:40:33.364Z,102653.63
2023-01-03T15:43:21.654Z,102662.25
2023-01-03T15:46:13.587Z,102646.91
2023-01-03T15:48:44.742Z,102655.69
2023-01-03T15:51:11.167Z,102658.38
2023-01-03T15:53:44.336Z,102651.38
2023-01-03T15:56:23.731Z,102651.78
2023-01-03T15:58:53.313Z,102647.47
2023-01-03T16:01:21.034Z,102639.47
2023-01-03T16:03:49.584Z,102638.63
2023-01-03T16:06:16.547Z,102635.97
2023-01-03T16:08:43.175Z,102639.47
2023-01-03T16:11:18.411Z,102634.53
2023-01-03T16:13:52.152Z,102627.16
2023-01-03T16:16:26.599Z,102628.81
2023-01-03T16:18:54.597Z,102624.50
2023-01-03T16:21:22.045Z,102629.00
2023-01-03T16:23:48.749Z,102626.53
2023-01-03T16:26:16.235Z,102625.06
2023-01-03T16:28:42.869Z,102633.06
2023-01-03T16:31:14.249Z,102628.78
2023-01-03T16:33:42.435Z,102630.41
2023-01-03T16:36:31.933Z,102615.44
2023-01-03T16:38:59.337Z,102616.06
2023-01-03T16:41:26.271Z,102611.56
2023-01-03T16:43:53.287Z,102614.22
2023-01-03T16:46:25.404Z,102615.66
2023-01-03T16:48:54.063Z,102610.34
2023-01-03T16:51:24.990Z,102605.00
2023-01-03T16:53:54.809Z,102594.97
2023-01-03T16:56:21.706Z,102592.31
2023-01-03T16:58:48.442Z,102585.53
2023-01-03T17:01:14.925Z,102588.00
2023-01-03T17:03:42.173Z,102589.44
2023-01-03T17:06:37.621Z,102587.38
2023-01-03T17:09:11.047Z,102587.22
2023-01-03T17:11:37.816Z,102589.03
2023-01-03T17:14:04.341Z,102581.03
2023-01-03T17:16:32.760Z,102583.72
2023-01-03T17:19:01.965Z,102584.13
2023-01-03T17:21:35.278Z,102577.16
2023-01-03T17:24:04.894Z,102581.47
2023-01-03T17:26:33.364Z,102573.91
2023-01-03T17:29:01.834Z,102568.75
2023-01-03T17:31:28.972Z,102567.09
2023-01-03T17:33:55.537Z,102568.38
2023-01-03T17:36:32.782Z,102566.50
2023-01-03T17:39:03.258Z,102565.94
2023-01-03T17:41:30.788Z,102561.81
2023-01-03T17:43:57.238Z,102553.00
2023-01-03T17:46:45.482Z,102558.34
2023-01-03T17:49:26.150Z,102557.31
2023-01-03T17:51:55.570Z,102550.13
2023-01-03T17:54:26.391Z,102545.63
2023-01-03T17:56:53.070Z,102548.47
2023-01-03T17:59:19.513Z,102550.97
2023-01-03T18:01:46.439Z,102544.41
2023-01-03T18:04:13.071Z,102546.03
2023-01-03T18:06:39.972Z,102541.97
2023-01-03T18:09:15.308Z,102541.97
2023-01-03T18:11:41.934Z,102537.66
2023-01-03T18:14:16.493Z,102528.81
2023-01-03T18:16:43.503Z,102532.09
2023-01-03T18:19:10.212Z,102526.16
2023-01-03T18:21:37.630Z,102532.72
2023-01-03T18:24:10.162Z,102523.50
2023-01-03T18:26:40.914Z,102526.16
2023-01-03T18:29:08.101Z,102531.31
2023-01-03T18:31:34.705Z,102521.44
2023-01-03T18:34:04.230Z,102516.50
2023-01-03T18:36:38.752Z,102512.41
2023-01-03T18:39:14.236Z,102509.34
2023-01-03T18:41:41.762Z,102497.66
2023-01-03T18:44:24.763Z,102500.91
2023-01-03T18:46:51.957Z,102487.59
2023-01-03T18:49:18.858Z,102502.78
2023-01-03T18:51:48.244Z,102483.31
2023-01-03T18:54:18.825Z,102479.00
2023-01-03T18:56:45.725Z,102468.50
2023-01-03T18:59:25.325Z,102492.31
2023-01-03T19:01:52.953Z,102471.41
2023-01-03T19:04:20.806Z,102470.56
2023-01-03T19:06:51.941Z,102467.72
2023-01-03T19:09:24.541Z,102479.59
2023-01-03T19:11:53.348Z,102477.13
2023-01-03T19:14:19.973Z,102469.34
2023-01-03T19:16:46.499Z,102477.13
2023-01-03T19:19:12.977Z,102469.53
2023-01-03T19:21:41.877Z,102468.91
2023-01-03T19:24:38.578Z,102467.72
2023-01-03T19:27:17.638Z,102453.97
2023-01-03T19:29:44.708Z,102445.13
2023-01-03T19:32:19.989Z,102438.16
2023-01-03T19:34:46.447Z,102421.13
2023-01-03T19:37:13.070Z,102423.16
2023-01-03T19:39:39.769Z,102420.72
2023-01-03T19:42:30.872Z,102432.41
2023-01-03T19:44:59.336Z,102418.84
2023-01-03T19:47:26.156Z,102417.03
2023-01-03T19:49:52.633Z,102409.03
2023-01-03T19:52:19.073Z,102401.81
2023-01-03T19:54:45.629Z,102393.81
2023-01-03T19:57:22.677Z,102388.50
2023-01-03T19:59:53.699Z,102376.19
2023-01-03T20:02:32.446Z,102380.50
2023-01-03T20:04:59.996Z,102381.34
2023-01-03T20:07:26.689Z,102386.06
2023-01-03T20:09:53.204Z,102380.09
2023-01-03T20:12:25.201Z,102386.25
2023-01-03T20:14:54.805Z,102381.97
2023-01-03T20:17:23.211Z,102384.19
2023-01-03T20:19:50.041Z,102365.53
2023-01-03T20:22:37.690Z,102380.50
2023-01-03T20:25:13.420Z,102363.09
2023-01-03T20:27:44.496Z,102359.59
2023-01-03T20:30:19.499Z,102356.31
2023-01-03T20:32:45.971Z,102345.44
2023-01-03T20:38:03.717Z,102343.78
2023-01-03T20:40:30.219Z,102336.41
2023-01-03T20:42:58.226Z,102339.69
2023-01-03T20:45:24.772Z,102326.53
2023-01-03T20:47:53.050Z,102318.34
2023-01-03T20:50:25.030Z,102321.00
2023-01-03T20:52:51.618Z,102317.94
2023-01-03T20:55:20.705Z,102317.09
2023-01-03T20:57:48.135Z,102308.69
2023-01-03T21:00:34.220Z,102314.63
2023-01-03T21:03:00.868Z,102308.06
2023-01-03T21:05:27.417Z,102303.13
2023-01-03T21:08:12.512Z,102299.44
2023-01-03T21:10:42.017Z,102294.72
2023-01-03T21:13:09.670Z,102291.63
2023-01-03T21:15:37.063Z,102288.97
2023-01-03T21:18:05.028Z,102292.44
2023-01-03T21:20:32.703Z,102273.34
2023-01-03T21:22:59.467Z,102278.69
2023-01-03T21:25:34.852Z,102275.00
2023-01-03T21:28:02.498Z,102267.78
2023-01-03T21:30:31.351Z,102257.13
2023-01-03T21:32:59.449Z,102253.88
2023-01-03T21:35:25.925Z,102246.47
2023-01-03T21:37:53.924Z,102243.22
2023-01-03T21:40:23.307Z,102236.00
2023-01-03T21:43:03.597Z,102245.88
2023-01-03T21:45:39.540Z,102228.38
2023-01-03T21:48:09.788Z,102235.59
2023-01-03T21:50:42.194Z,102221.22
2023-01-03T21:53:22.963Z,102224.53
2023-01-03T21:55:50.273Z,102217.72
2023-01-03T21:58:19.020Z,102215.66
2023-01-03T22:00:45.869Z,102214.63
2023-01-03T22:03:33.109Z,102209.50
2023-01-03T22:06:06.983Z,102214.38
2023-01-03T22:08:34.329Z,102221.16
2023-01-03T22:11:00.830Z,102201.44
2023-01-03T22:13:27.337Z,102196.69
2023-01-03T22:15:54.054Z,102196.88
2023-01-03T22:18:20.556Z,102203.41
2023-01-03T22:20:46.918Z,102198.69
2023-01-03T22:23:14.130Z,102197.84
2023-01-03T22:25:40.676Z,102188.38
2023-01-03T22:28:07.190Z,102187.34
2023-01-03T22:30:33.705Z,102182.03
2023-01-03T22:33:00.154Z,102190.22
2023-01-03T22:35:26.559Z,102176.47
2023-01-03T22:37:56.714Z,102169.47
2023-01-03T22:40:23.301Z,102170.50
2023-01-03T22:42:49.780Z,102148.72
2023-01-03T22:45:16.651Z,102169.44
2023-01-03T22:47:43.202Z,102145.22
2023-01-03T22:50:10.637Z,102166.94
2023-01-03T22:52:38.299Z,102155.00
2023-01-03T22:55:05.414Z,102153.97
2023-01-03T22:57:31.847Z,102146.56
2023-01-03T22:59:58.254Z,102138.91
2023-01-03T23:02:28.720Z,102135.22
2023-01-03T23:04:56.001Z,102138.50
2023-01-03T23:07:22.415Z,102120.00
2023-01-03T23:09:48.912Z,102118.97
2023-01-03T23:12:34.048Z,102126.19
2023-01-03T23:15:00.531Z,102114.66
2023-01-03T23:17:45.282Z,102098.63
2023-01-03T23:20:11.919Z,102104.66
2023-01-03T23:22:38.470Z,102101.38
2023-01-03T23:25:05.246Z,102075.75
2023-01-03T23:27:31.724Z,102085.81
2023-01-03T23:29:58.230Z,102076.97
2023-01-03T23:32:24.705Z,102068.38
2023-01-03T23:34:51.203Z,102059.38
2023-01-03T23:37:17.595Z,102054.28
2023-01-03T23:39:44.187Z,102033.97
2023-01-03T23:42:10.927Z,102031.53
2023-01-03T23:44:37.457Z,102043.84
2023-01-03T23:47:11.156Z,102021.22
2023-01-03T23:49:39.027Z,102015.72
2023-01-03T23:52:05.630Z,102022.91
2023-01-03T23:54:32.018Z,102013.28
2023-01-03T23:56:58.470Z,102002.00
2023-01-03T23:59:24.912Z,102002.00
